Aérodrome :
LOGIN :

S'inscrire | Disclaimer

   EN    FR    IT 

 










Légende :    VFR   VFR Marginal   IFR   IFR Intensif   IFR Très Intensif
Visi : 
Plafond : 
>= 8 km
>= 3000ft
5 à 8 km
1000 à 3000 ft
1500m à 5 km
500 à 1000 ft
800 à 1500m
200 à 500 ft
< 800m
< 200 ft
Symboles :   Orages  Brouillard  Fortes neiges  Fortes précipitations  Vent > 20 kt
SIGMETs :   Divers  Orages  Givrage  Turbulence  Onde Orograph.  Cendres Volcan.






- Altitude de l'aérodrome : 1058 ft
- Code IATA : SCN


EDDR - Saarbrücken

DERNIER METAR :
  • 210750Z 09005KT 1200 R09/P2000N BR FEW002 OVC003 01/01 Q1009 BECMG 2000 BR

METARs EXPIRÉS :
  • 210720Z 08007KT 050V110 1300 R09/P2000N BR FEW001 OVC003 01/01 Q1009 TEMPO 0800 FG BKN002
  • 210650Z 09006KT 060V120 1100 R09/P2000N BR FEW001 OVC003 01/01 Q1009 TEMPO 0800 FG BKN002
  • 210620Z 09007KT 1700 BR FEW001 OVC003 01/01 Q1009 TEMPO 1500
  • 210550Z 09007KT 2200 BR FEW001 OVC003 01/01 Q1009 TEMPO 1500
  • 210520Z 09006KT 3500 BR FEW001 OVC003 01/01 Q1009 TEMPO 2500

TAF AMD TAF EDDR
Valide du 21 à 06h jusqu'au 22 à 06h UTC


210629Z 2106/2206 08006KT 4500 BR BKN005
TEMPO 2106/2111 1200 BR BKN003
PROB40
TEMPO 2106/2110 0600 FG BKN001
BECMG 2111/2113 8000 SCT005
BECMG 2119/2122 1400 BR BKN002
TEMPO 2120/2206 0200 FG VV000



MET'MAP, la Météo Aéronautique d'un coup d'oeil ! - Copyright ORBIFLY Décembre 2007 - Disclaimer

ORBIFLY MET'MAP TEAM :

Programmation & Développement : Alexandra Zaïnal
Conception & Développement : Baudouin d'Aumeries
Co-Programmation & Développement : Marc-Olivier Méhu
Soutien technique & logistique : Manuel Goepfert

Contact : metmap@orbifly.com




SOURCES & CREDITS :

   NOAA